Time;durP1;ratioP1;P1;durP2;ratioP2;P2;SDS_P1;SDS_P2;PMS_P1;PMS_P2;Temp;Humidity;BMP_temperature;BMP_pressure;BME280_temperature;BME280_humidity;BME280_pressure;Samples;Min_cycle;Max_cycle;Signal;HPM_P1;HPM_P2
2024/03/17 00:02:14;;;;;;;12.67;6.50;;;5.10;99.90;;;;;;4913284;29;20464;-93
2024/03/17 00:04:50;;;;;;;14.80;6.20;;;5.10;99.90;;;;;;4896336;29;20477;-93
2024/03/17 00:07:23;;;;;;;13.27;6.20;;;5.10;99.90;;;;;;4909089;29;20445;-94
2024/03/17 00:09:50;;;;;;;15.57;5.97;;;5.10;99.90;;;;;;4891774;29;20457;-93
2024/03/17 00:12:21;;;;;;;16.33;5.70;;;5.10;99.90;;;;;;4906464;29;20480;-93
2024/03/17 00:14:51;;;;;;;19.53;5.60;;;5.00;99.90;;;;;;4905029;29;20507;-93
2024/03/17 00:17:20;;;;;;;17.63;6.53;;;5.00;99.90;;;;;;4909930;29;20458;-94
2024/03/17 00:19:48;;;;;;;11.90;5.63;;;5.00;99.90;;;;;;4907192;29;20536;-93
2024/03/17 00:22:17;;;;;;;12.50;5.73;;;5.00;99.90;;;;;;4888578;29;20464;-93
2024/03/17 00:24:45;;;;;;;14.83;5.87;;;5.00;99.90;;;;;;4889773;29;20458;-93
2024/03/17 00:27:14;;;;;;;13.87;6.30;;;4.90;99.90;;;;;;4890548;29;20979;-93
2024/03/17 00:29:43;;;;;;;18.80;6.43;;;4.90;99.90;;;;;;4893091;29;20457;-92
2024/03/17 00:32:14;;;;;;;15.27;6.23;;;4.90;99.90;;;;;;4904621;29;20475;-93
2024/03/17 00:34:41;;;;;;;13.00;5.60;;;4.90;99.90;;;;;;4891295;29;20469;-94
2024/03/17 00:37:10;;;;;;;10.70;6.40;;;4.90;99.90;;;;;;4907862;29;20987;-93
2024/03/17 00:39:37;;;;;;;9.40;5.60;;;4.80;99.90;;;;;;4882596;29;20445;-92
2024/03/17 00:42:06;;;;;;;13.87;6.40;;;5.00;99.90;;;;;;4937117;29;20508;-93
2024/03/17 00:44:37;;;;;;;15.87;5.90;;;4.80;99.90;;;;;;4899583;29;20504;-93
2024/03/17 00:47:14;;;;;;;10.40;5.13;;;4.80;99.90;;;;;;4898590;29;20453;-93
2024/03/17 00:49:50;;;;;;;13.13;5.90;;;4.80;99.90;;;;;;4923346;29;20442;-93
2024/03/17 00:52:19;;;;;;;14.53;6.50;;;4.80;99.90;;;;;;4907738;29;20465;-93
2024/03/17 00:54:47;;;;;;;14.63;7.10;;;4.70;99.90;;;;;;4907820;29;20481;-93
2024/03/17 00:57:15;;;;;;;16.70;8.87;;;4.70;99.90;;;;;;4908204;29;20539;-93
2024/03/17 00:59:44;;;;;;;18.20;8.63;;;4.80;99.90;;;;;;4892071;29;20458;-92
2024/03/17 01:02:14;;;;;;;14.93;7.80;;;4.70;99.90;;;;;;4891542;29;20476;-92
2024/03/17 01:04:46;;;;;;;15.77;8.90;;;4.70;99.90;;;;;;4897625;29;20528;-92
2024/03/17 01:07:18;;;;;;;12.60;8.43;;;4.70;99.90;;;;;;4908556;29;20456;-93
2024/03/17 01:09:48;;;;;;;17.03;7.37;;;4.70;99.90;;;;;;4893044;29;20460;-93
2024/03/17 01:12:16;;;;;;;19.80;6.30;;;4.60;99.90;;;;;;4892287;29;20483;-93
2024/03/17 01:14:44;;;;;;;12.53;5.77;;;4.60;99.90;;;;;;4907648;29;20477;-93
2024/03/17 01:17:14;;;;;;;10.60;6.23;;;4.60;99.90;;;;;;4892709;29;20449;-93
2024/03/17 01:19:40;;;;;;;14.50;6.80;;;4.60;99.90;;;;;;4893377;29;20456;-92
2024/03/17 01:22:11;;;;;;;8.80;5.33;;;4.60;99.90;;;;;;4909146;29;20883;-93
2024/03/17 01:24:45;;;;;;;11.67;6.07;;;4.60;99.90;;;;;;4892996;29;20517;-93
2024/03/17 01:27:15;;;;;;;12.17;5.17;;;4.50;99.90;;;;;;4894790;29;20449;-93
2024/03/17 01:29:46;;;;;;;13.00;4.70;;;4.50;99.90;;;;;;4908105;29;20445;-92
2024/03/17 01:32:19;;;;;;;10.30;5.37;;;4.50;99.90;;;;;;4892172;29;20548;-93
2024/03/17 01:34:46;;;;;;;16.00;5.13;;;4.50;99.90;;;;;;4907620;29;20473;-93
2024/03/17 01:37:15;;;;;;;14.73;6.13;;;4.40;99.90;;;;;;4907703;29;20482;-93
2024/03/17 01:39:41;;;;;;;9.43;5.10;;;4.50;99.90;;;;;;4891741;29;20453;-92
2024/03/17 01:42:09;;;;;;;11.80;5.30;;;4.50;99.90;;;;;;4908776;29;20475;-93
2024/03/17 01:44:36;;;;;;;10.33;4.83;;;4.40;99.90;;;;;;4892759;29;20445;-93
2024/03/17 01:47:04;;;;;;;10.30;5.00;;;4.30;99.90;;;;;;4892479;29;20969;-93
2024/03/17 01:49:34;;;;;;;11.13;4.80;;;4.30;99.90;;;;;;4901928;29;20448;-93
2024/03/17 01:52:05;;;;;;;13.40;5.97;;;4.30;99.90;;;;;;4909046;29;20516;-93
2024/03/17 01:54:33;;;;;;;12.30;7.17;;;4.30;99.90;;;;;;4908969;29;20489;-92
2024/03/17 01:57:01;;;;;;;20.10;7.23;;;4.50;99.90;;;;;;4908821;29;20425;-93
2024/03/17 01:59:28;;;;;;;16.10;8.10;;;4.40;99.90;;;;;;4893371;29;20497;-93
2024/03/17 02:01:56;;;;;;;21.87;9.17;;;4.30;99.90;;;;;;4889515;29;20473;-93
2024/03/17 02:04:26;;;;;;;22.97;9.63;;;4.20;99.90;;;;;;4906351;29;20483;-93
2024/03/17 02:06:56;;;;;;;24.83;11.63;;;4.20;99.90;;;;;;4904939;29;20478;-92
2024/03/17 02:09:33;;;;;;;;;;;;;;;;;;;;;
2024/03/17 02:12:10;;;;;;;21.73;12.40;;;4.20;99.90;;;;;;4890366;29;20475;-93
2024/03/17 02:14:37;;;;;;;28.33;9.60;;;4.10;99.90;;;;;;4889755;29;20518;-92
2024/03/17 02:17:07;;;;;;;27.03;10.23;;;4.10;99.90;;;;;;4889579;29;20454;-92
2024/03/17 02:19:35;;;;;;;20.90;10.20;;;4.10;99.90;;;;;;4890123;29;20482;-93
2024/03/17 02:22:16;;;;;;;14.80;8.23;;;4.10;99.90;;;;;;4889819;29;20470;-93
2024/03/17 02:24:43;;;;;;;18.20;9.67;;;4.10;99.90;;;;;;4890264;29;20484;-93
2024/03/17 02:27:11;;;;;;;15.80;8.00;;;4.00;99.90;;;;;;4906926;29;20543;-92
2024/03/17 02:29:43;;;;;;;14.70;7.50;;;4.00;99.90;;;;;;4899946;29;20456;-92
2024/03/17 02:32:12;;;;;;;14.77;8.83;;;4.00;99.90;;;;;;4909651;29;20497;-93
2024/03/17 02:34:41;;;;;;;17.20;8.33;;;4.00;99.90;;;;;;4905113;29;20470;-93
2024/03/17 02:37:15;;;;;;;14.77;7.10;;;4.10;99.90;;;;;;4905406;29;20541;-93
2024/03/17 02:39:42;;;;;;;21.07;10.40;;;4.00;99.90;;;;;;4904481;29;20442;-92
2024/03/17 02:42:14;;;;;;;25.10;10.60;;;3.90;99.90;;;;;;4888279;29;20474;-92
2024/03/17 02:44:40;;;;;;;24.70;10.47;;;4.00;99.90;;;;;;4888119;29;20533;-93
2024/03/17 02:47:18;;;;;;;27.47;11.27;;;3.90;99.90;;;;;;4893013;29;20461;-93
2024/03/17 02:49:49;;;;;;;32.73;12.80;;;3.90;99.90;;;;;;4888416;29;20449;-92
2024/03/17 02:52:22;;;;;;;31.40;11.40;;;3.90;99.90;;;;;;4889379;29;20544;-93
2024/03/17 02:54:49;;;;;;;24.67;11.77;;;3.90;99.90;;;;;;4889206;29;20812;-93
2024/03/17 02:57:21;;;;;;;27.57;10.87;;;3.90;99.90;;;;;;4889683;29;20460;-93
2024/03/17 02:59:51;;;;;;;22.67;12.97;;;3.80;99.90;;;;;;4890099;29;20512;-93
2024/03/17 03:02:19;;;;;;;17.40;8.73;;;3.70;99.90;;;;;;4888204;29;20567;-93
2024/03/17 03:04:50;;;;;;;17.83;8.13;;;3.80;99.90;;;;;;4888157;29;20457;-92
2024/03/17 03:07:22;;;;;;;16.73;8.80;;;3.80;99.90;;;;;;4889984;29;20449;-93
2024/03/17 03:09:55;;;;;;;13.77;7.90;;;3.70;99.90;;;;;;4886831;29;20449;-92
2024/03/17 03:12:24;;;;;;;20.67;8.10;;;3.70;99.90;;;;;;4887367;29;20449;-92
2024/03/17 03:14:55;;;;;;;14.47;8.40;;;3.70;99.90;;;;;;4887991;29;20540;-93
2024/03/17 03:17:23;;;;;;;18.33;8.20;;;3.70;99.90;;;;;;4887923;29;20449;-92
2024/03/17 03:19:58;;;;;;;12.83;6.97;;;3.70;99.90;;;;;;4903463;29;20458;-92
2024/03/17 03:22:34;;;;;;;14.30;6.77;;;3.70;99.90;;;;;;4888308;29;20448;-92
2024/03/17 03:25:03;;;;;;;15.40;7.10;;;3.60;99.90;;;;;;4891844;29;20449;-92
2024/03/17 03:27:31;;;;;;;19.37;7.87;;;3.90;99.90;;;;;;4908677;29;20449;-94
2024/03/17 03:30:06;;;;;;;13.23;6.70;;;3.70;99.90;;;;;;4893584;29;20461;-92
2024/03/17 03:32:38;;;;;;;10.93;6.17;;;3.80;99.90;;;;;;4893683;29;20438;-92
2024/03/17 03:35:09;;;;;;;16.17;7.00;;;3.60;99.90;;;;;;4888448;29;20544;-94
2024/03/17 03:37:38;;;;;;;11.20;6.40;;;3.60;99.90;;;;;;4888586;29;20449;-94
2024/03/17 03:40:16;;;;;;;11.30;6.03;;;3.60;99.90;;;;;;4887806;29;20808;-94
2024/03/17 03:42:48;;;;;;;15.37;6.50;;;3.60;99.90;;;;;;4887088;29;20532;-94
2024/03/17 03:45:16;;;;;;;14.90;6.60;;;3.60;99.90;;;;;;4902908;29;20430;-94
2024/03/17 03:47:48;;;;;;;18.30;7.47;;;3.60;99.90;;;;;;4902510;29;20513;-92
2024/03/17 03:50:20;;;;;;;10.77;5.63;;;3.60;99.90;;;;;;4902230;29;20551;-92
2024/03/17 03:52:55;;;;;;;11.07;5.90;;;3.70;99.90;;;;;;4903050;29;20445;-92
2024/03/17 03:55:26;;;;;;;11.73;6.30;;;3.60;99.90;;;;;;4887287;29;20549;-92
2024/03/17 03:57:56;;;;;;;9.67;5.43;;;3.50;99.90;;;;;;4887082;29;20485;-93
2024/03/17 04:00:29;;;;;;;8.10;5.33;;;3.50;99.90;;;;;;4902705;29;20513;-93
2024/03/17 04:02:58;;;;;;;9.03;5.37;;;3.60;99.90;;;;;;4902246;29;20497;-93
2024/03/17 04:05:29;;;;;;;8.40;4.90;;;3.50;99.90;;;;;;4886667;29;20952;-92
2024/03/17 04:07:59;;;;;;;12.00;5.43;;;3.80;99.90;;;;;;4888225;29;20455;-92
2024/03/17 04:10:26;;;;;;;14.40;5.47;;;3.50;99.90;;;;;;4886992;29;20473;-92
2024/03/17 04:13:00;;;;;;;16.50;5.80;;;3.50;99.90;;;;;;4921249;29;20459;-94
2024/03/17 04:15:28;;;;;;;16.47;6.90;;;3.60;99.90;;;;;;4915703;29;20469;-93
2024/03/17 04:17:58;;;;;;;12.50;5.73;;;3.70;99.90;;;;;;4886622;29;20454;-93
2024/03/17 04:20:26;;;;;;;14.50;7.37;;;3.60;99.90;;;;;;4886066;29;20473;-93
2024/03/17 04:22:54;;;;;;;8.50;5.03;;;3.60;99.90;;;;;;4886495;29;20449;-92
2024/03/17 04:25:26;;;;;;;11.20;5.10;;;3.60;99.90;;;;;;4887204;29;20460;-92
2024/03/17 04:27:54;;;;;;;12.13;6.33;;;3.70;99.90;;;;;;4903030;29;20460;-92
2024/03/17 04:30:26;;;;;;;10.17;5.80;;;3.70;99.90;;;;;;4888709;29;20469;-92
2024/03/17 04:32:59;;;;;;;11.77;6.73;;;3.60;99.90;;;;;;4909816;29;20434;-94
2024/03/17 04:35:27;;;;;;;11.30;5.43;;;3.70;99.90;;;;;;4887259;29;20477;-95
2024/03/17 04:37:59;;;;;;;16.20;6.00;;;3.60;99.90;;;;;;4902726;29;20440;-94
2024/03/17 04:40:28;;;;;;;10.33;6.03;;;3.50;99.90;;;;;;4904127;29;20477;-93
2024/03/17 04:42:58;;;;;;;9.57;5.00;;;3.60;99.90;;;;;;4892367;29;20453;-94
2024/03/17 04:45:27;;;;;;;9.57;6.13;;;3.60;99.90;;;;;;4902814;29;20449;-92
2024/03/17 04:47:55;;;;;;;12.13;6.80;;;3.60;99.90;;;;;;4888754;29;20943;-95
2024/03/17 04:50:23;;;;;;;17.63;7.07;;;3.60;99.90;;;;;;4885439;29;20490;-93
2024/03/17 04:52:52;;;;;;;11.70;5.23;;;3.80;99.90;;;;;;4886040;29;20558;-93
2024/03/17 04:55:20;;;;;;;13.97;5.80;;;3.70;99.90;;;;;;4901525;29;20548;-92
2024/03/17 04:57:49;;;;;;;8.17;5.87;;;3.60;99.90;;;;;;4885807;29;20540;-92
2024/03/17 05:00:17;;;;;;;12.50;5.07;;;3.70;99.90;;;;;;4885556;29;20549;-91
2024/03/17 05:02:47;;;;;;;13.27;5.53;;;3.60;99.90;;;;;;4892538;29;20465;-93
2024/03/17 05:05:15;;;;;;;8.67;5.97;;;3.60;99.90;;;;;;4910252;29;20476;-92
2024/03/17 05:07:43;;;;;;;12.23;5.90;;;3.60;99.90;;;;;;4900856;29;20500;-92
2024/03/17 05:10:13;;;;;;;12.93;6.77;;;3.60;99.90;;;;;;4885286;29;20449;-92
2024/03/17 05:12:41;;;;;;;13.27;5.17;;;3.60;99.90;;;;;;4885978;29;20532;-92
2024/03/17 05:15:13;;;;;;;11.13;6.53;;;3.60;99.90;;;;;;4900891;29;21022;-92
2024/03/17 05:17:45;;;;;;;8.10;5.43;;;3.80;99.90;;;;;;4886247;29;20461;-92
2024/03/17 05:20:20;;;;;;;8.77;5.70;;;3.60;99.90;;;;;;4885982;29;20475;-92
2024/03/17 05:22:50;;;;;;;11.93;5.53;;;3.60;99.90;;;;;;4900485;29;20457;-93
2024/03/17 05:25:21;;;;;;;10.10;5.07;;;3.50;99.90;;;;;;4886747;29;20496;-93
2024/03/17 05:27:50;;;;;;;10.13;5.50;;;3.60;99.90;;;;;;4904635;29;20437;-92
2024/03/17 05:30:19;;;;;;;11.97;6.10;;;3.70;99.90;;;;;;4889123;29;20963;-92
2024/03/17 05:32:52;;;;;;;10.50;5.57;;;3.50;99.90;;;;;;4889051;29;20457;-93
2024/03/17 05:35:20;;;;;;;9.90;5.90;;;3.70;99.90;;;;;;4904867;29;20445;-92
2024/03/17 05:37:49;;;;;;;13.10;5.20;;;3.60;99.90;;;;;;4890468;29;20816;-92
2024/03/17 05:40:22;;;;;;;9.60;5.50;;;3.60;99.90;;;;;;4908532;29;20461;-91
2024/03/17 05:42:50;;;;;;;11.32;5.70;;;3.50;99.90;;;;;;4919309;29;20489;-92
2024/03/17 05:45:20;;;;;;;12.03;6.07;;;3.70;99.90;;;;;;4909384;29;20292;-92
2024/03/17 05:47:53;;;;;;;12.57;5.63;;;3.50;99.90;;;;;;4887859;29;20445;-92
2024/03/17 05:50:21;;;;;;;13.10;7.80;;;3.50;99.90;;;;;;4904234;29;20508;-92
2024/03/17 05:52:51;;;;;;;8.63;5.60;;;3.50;99.90;;;;;;4905107;29;20454;-92
2024/03/17 05:55:18;;;;;;;9.20;5.50;;;3.50;99.90;;;;;;4888702;29;20457;-92
2024/03/17 05:57:46;;;;;;;8.90;6.37;;;3.50;99.90;;;;;;4904401;29;20547;-92
2024/03/17 06:00:15;;;;;;;12.33;6.03;;;3.50;99.90;;;;;;4904375;29;20485;-91
2024/03/17 06:02:47;;;;;;;17.20;6.50;;;3.50;99.90;;;;;;4903442;29;20828;-92
2024/03/17 06:05:15;;;;;;;11.87;5.80;;;3.40;99.90;;;;;;4888060;29;20441;-92
2024/03/17 06:07:51;;;;;;;9.13;6.63;;;3.40;99.90;;;;;;4887012;29;20449;-92
2024/03/17 06:10:24;;;;;;;10.73;6.47;;;3.40;99.90;;;;;;4888199;29;20484;-92
2024/03/17 06:12:52;;;;;;;14.90;6.07;;;3.40;99.90;;;;;;4891014;29;20477;-92
2024/03/17 06:15:20;;;;;;;9.63;6.50;;;3.50;99.90;;;;;;4892321;29;20464;-92
2024/03/17 06:17:52;;;;;;;9.30;5.90;;;3.40;99.90;;;;;;4891591;29;20472;-93
2024/03/17 06:20:20;;;;;;;11.83;6.90;;;3.50;99.90;;;;;;4906768;29;20470;-92
2024/03/17 06:22:51;;;;;;;10.00;5.87;;;3.40;99.90;;;;;;4893283;29;20465;-93
2024/03/17 06:25:23;;;;;;;11.10;6.43;;;3.40;99.90;;;;;;4889912;29;20437;-92
2024/03/17 06:27:54;;;;;;;16.23;6.03;;;3.60;99.90;;;;;;4888558;29;20524;-92
2024/03/17 06:30:29;;;;;;;10.80;6.67;;;3.40;99.90;;;;;;4887960;29;20506;-93
2024/03/17 06:33:02;;;;;;;9.10;5.90;;;3.50;99.90;;;;;;4887956;29;20500;-93
2024/03/17 06:35:35;;;;;;;12.47;5.90;;;3.60;99.90;;;;;;4902546;29;20477;-93
2024/03/17 06:38:02;;;;;;;8.33;6.60;;;3.70;99.90;;;;;;4887704;29;20988;-92
2024/03/17 06:40:31;;;;;;;14.90;6.77;;;3.80;99.90;;;;;;4887726;29;20477;-93
2024/03/17 06:42:59;;;;;;;10.20;6.77;;;3.80;99.90;;;;;;4887641;29;20541;-92
2024/03/17 06:45:26;;;;;;;10.97;6.10;;;4.00;99.90;;;;;;4887495;29;20441;-93
2024/03/17 06:47:57;;;;;;;8.57;6.37;;;3.90;99.90;;;;;;4887526;29;20449;-92
2024/03/17 06:50:27;;;;;;;10.10;6.40;;;4.00;99.90;;;;;;4888203;29;20473;-92
2024/03/17 06:52:56;;;;;;;9.43;7.03;;;4.20;99.90;;;;;;4907714;29;20451;-93
2024/03/17 06:55:28;;;;;;;9.50;7.00;;;4.20;99.90;;;;;;4886414;29;20453;-92
2024/03/17 06:57:56;;;;;;;8.20;7.03;;;4.20;99.90;;;;;;4886306;29;20470;-92
2024/03/17 07:00:25;;;;;;;10.67;6.40;;;4.30;99.90;;;;;;4902834;29;20537;-95
2024/03/17 07:02:57;;;;;;;20.53;12.97;;;4.30;99.90;;;;;;4887809;29;20951;-93
2024/03/17 07:05:29;;;;;;;20.13;9.50;;;4.30;99.90;;;;;;4890634;29;20475;-92
2024/03/17 07:07:59;;;;;;;17.20;9.70;;;4.40;99.90;;;;;;4887485;29;20442;-92
2024/03/17 07:10:27;;;;;;;9.90;7.47;;;4.40;99.90;;;;;;4888408;29;20509;-92
2024/03/17 07:12:55;;;;;;;11.97;8.00;;;4.50;99.90;;;;;;4888396;29;20533;-93
2024/03/17 07:15:23;;;;;;;13.30;8.77;;;4.60;99.90;;;;;;4888152;29;20540;-93
2024/03/17 07:17:52;;;;;;;13.37;9.63;;;4.60;99.90;;;;;;4906149;29;20477;-93
2024/03/17 07:20:20;;;;;;;11.50;8.03;;;4.70;99.90;;;;;;4889169;29;20476;-92
2024/03/17 07:22:52;;;;;;;16.30;8.20;;;4.70;99.90;;;;;;4895659;29;20480;-93
2024/03/17 07:25:20;;;;;;;16.27;10.50;;;4.80;99.90;;;;;;4888683;29;20522;-93
2024/03/17 07:27:48;;;;;;;20.23;10.90;;;4.80;99.90;;;;;;4887873;29;20458;-93
2024/03/17 07:30:17;;;;;;;22.30;14.30;;;4.90;99.90;;;;;;4890800;29;20453;-92
2024/03/17 07:32:44;;;;;;;15.27;9.67;;;4.90;99.90;;;;;;4904343;29;20455;-92
2024/03/17 07:35:12;;;;;;;17.30;9.63;;;5.00;99.90;;;;;;4890505;29;20521;-93
2024/03/17 07:37:40;;;;;;;17.60;8.57;;;5.10;99.90;;;;;;4894419;29;20472;-93
2024/03/17 07:40:17;;;;;;;11.63;7.70;;;5.10;99.90;;;;;;4911104;29;20485;-93
2024/03/17 07:42:47;;;;;;;13.33;7.10;;;5.20;99.90;;;;;;4905564;29;20450;-93
2024/03/17 07:45:16;;;;;;;12.80;8.23;;;5.30;99.90;;;;;;4906677;29;20441;-93
2024/03/17 07:47:45;;;;;;;19.40;9.17;;;5.40;99.90;;;;;;4906216;29;20468;-93
2024/03/17 07:50:17;;;;;;;18.40;7.13;;;5.50;99.90;;;;;;4902297;29;20441;-92
2024/03/17 07:52:45;;;;;;;14.83;7.17;;;5.60;99.90;;;;;;4876287;29;20544;-93
2024/03/17 07:55:17;;;;;;;12.60;6.60;;;5.70;99.90;;;;;;4908719;29;20497;-93
2024/03/17 07:57:49;;;;;;;12.80;6.90;;;5.80;99.90;;;;;;4892107;29;20476;-93
2024/03/17 08:00:22;;;;;;;11.80;6.33;;;5.90;99.90;;;;;;4892495;29;20478;-93
2024/03/17 08:02:53;;;;;;;20.57;6.97;;;6.00;99.90;;;;;;4893562;29;20532;-93
2024/03/17 08:05:23;;;;;;;15.50;6.33;;;6.10;99.90;;;;;;4891908;29;20473;-93
2024/03/17 08:07:52;;;;;;;15.80;6.70;;;6.20;99.90;;;;;;4894371;29;20455;-93
2024/03/17 08:13:15;;;;;;;12.13;7.10;;;6.60;99.90;;;;;;4894490;29;20486;-94
2024/03/17 08:15:47;;;;;;;12.23;5.90;;;6.70;99.90;;;;;;4912895;29;20436;-93
2024/03/17 08:18:20;;;;;;;14.63;5.93;;;6.90;99.90;;;;;;4897573;29;20468;-93
2024/03/17 08:20:50;;;;;;;11.20;5.97;;;7.10;99.90;;;;;;4893880;29;20551;-93
2024/03/17 08:23:25;;;;;;;11.20;5.73;;;7.20;99.90;;;;;;4912379;29;20441;-94
2024/03/17 08:26:02;;;;;;;13.10;5.73;;;7.30;99.90;;;;;;4895981;29;20459;-93
2024/03/17 08:28:32;;;;;;;10.73;4.67;;;7.40;99.90;;;;;;4896991;29;20445;-94
2024/03/17 08:31:07;;;;;;;14.43;4.90;;;7.40;99.90;;;;;;4912672;29;20487;-93
2024/03/17 08:33:39;;;;;;;18.23;7.83;;;7.40;99.90;;;;;;4894498;29;20548;-93
2024/03/17 08:36:10;;;;;;;10.07;5.27;;;7.50;99.90;;;;;;4908596;29;20449;-93
2024/03/17 08:38:44;;;;;;;8.87;4.73;;;7.50;99.90;;;;;;4891373;29;20930;-93
2024/03/17 08:41:17;;;;;;;10.43;5.37;;;7.60;99.90;;;;;;4910157;29;20489;-93
2024/03/17 08:43:47;;;;;;;13.00;6.03;;;7.70;99.90;;;;;;4910640;29;20535;-93
2024/03/17 08:46:18;;;;;;;11.57;7.70;;;7.90;99.90;;;;;;4894080;29;20445;-93
2024/03/17 08:48:49;;;;;;;14.77;6.27;;;8.00;99.90;;;;;;4893917;29;20442;-93
2024/03/17 08:51:19;;;;;;;13.63;5.17;;;8.10;99.90;;;;;;4895856;29;20533;-93
2024/03/17 08:53:49;;;;;;;11.37;5.50;;;8.20;99.90;;;;;;4912116;29;20454;-93
2024/03/17 08:56:24;;;;;;;10.50;5.10;;;8.30;99.90;;;;;;4897544;29;20445;-93
2024/03/17 08:59:06;;;;;;;11.30;5.53;;;8.50;99.90;;;;;;4911357;29;20457;-93
2024/03/17 09:01:40;;;;;;;10.57;5.10;;;8.50;99.90;;;;;;4913864;29;20552;-93
2024/03/17 09:04:12;;;;;;;10.83;5.10;;;8.70;99.90;;;;;;4911979;29;20496;-94
2024/03/17 09:06:41;;;;;;;13.10;6.10;;;8.70;99.90;;;;;;4913989;29;20478;-93
2024/03/17 09:09:26;;;;;;;14.93;6.77;;;8.80;99.90;;;;;;4915017;29;20581;-93
2024/03/17 09:12:30;;;;;;;10.60;5.77;;;8.90;99.90;;;;;;4914138;29;20463;-94
2024/03/17 09:15:02;;;;;;;9.30;5.10;;;9.00;99.90;;;;;;4885734;29;20461;-93
2024/03/17 09:17:33;;;;;;;11.33;5.27;;;9.10;99.90;;;;;;4913942;29;20514;-93
2024/03/17 09:20:05;;;;;;;9.00;4.47;;;9.20;99.90;;;;;;4884850;29;20453;-93
2024/03/17 09:22:33;;;;;;;9.40;4.30;;;9.20;99.90;;;;;;4896912;29;20488;-93
2024/03/17 09:25:01;;;;;;;13.30;5.73;;;9.30;99.90;;;;;;4917737;29;20463;-93
2024/03/17 09:27:37;;;;;;;12.03;5.10;;;9.30;99.90;;;;;;4898872;29;20492;-93
2024/03/17 09:30:11;;;;;;;8.50;4.03;;;9.30;99.90;;;;;;4899468;29;20453;-93
2024/03/17 09:32:58;;;;;;;12.70;4.70;;;9.40;99.90;;;;;;4883108;29;20477;-93
2024/03/17 09:38:14;;;;;;;7.10;3.33;;;9.40;99.90;;;;;;4921502;29;20468;-93
2024/03/17 09:40:49;;;;;;;8.57;3.07;;;9.40;99.90;;;;;;4901815;29;20472;-94
2024/03/17 09:44:12;;;;;;;8.00;3.90;;;9.50;99.90;;;;;;4906020;29;20458;-94
2024/03/17 09:47:32;;;;;;;9.23;3.80;;;9.40;99.90;;;;;;4899614;29;20538;-93
2024/03/17 09:50:03;;;;;;;6.67;4.43;;;9.50;99.90;;;;;;4923943;29;20433;-94
2024/03/17 09:52:33;;;;;;;6.97;3.30;;;9.60;99.90;;;;;;4908205;29;20473;-95
2024/03/17 09:55:24;;;;;;;7.20;3.60;;;9.60;99.90;;;;;;4924687;29;20475;-95
2024/03/17 09:57:54;;;;;;;7.07;3.60;;;9.70;99.90;;;;;;4924780;29;20489;-94
2024/03/17 10:00:25;;;;;;;8.37;3.03;;;9.70;99.90;;;;;;4909147;29;20564;-95
2024/03/17 10:02:55;;;;;;;6.50;3.03;;;9.80;99.90;;;;;;4908675;29;20453;-93
2024/03/17 10:05:25;;;;;;;7.97;3.50;;;9.90;99.90;;;;;;4908999;29;20418;-93
2024/03/17 10:07:57;;;;;;;6.20;3.10;;;9.90;99.90;;;;;;4924198;29;20445;-94
2024/03/17 10:10:25;;;;;;;8.20;3.80;;;9.90;99.90;;;;;;4923660;29;20489;-95
2024/03/17 10:12:54;;;;;;;8.03;3.30;;;9.90;99.90;;;;;;4908948;29;20437;-94
2024/03/17 10:15:23;;;;;;;7.77;3.57;;;9.90;99.90;;;;;;4908284;29;20477;-94
2024/03/17 10:17:51;;;;;;;6.80;3.23;;;9.90;99.90;;;;;;4906361;29;20509;-94
2024/03/17 10:20:26;;;;;;;6.53;4.00;;;9.90;99.90;;;;;;4907218;29;20449;-93
2024/03/17 10:23:03;;;;;;;6.13;3.07;;;9.90;99.90;;;;;;4905928;29;20448;-94
2024/03/17 10:25:32;;;;;;;8.03;3.30;;;10.00;99.90;;;;;;4921133;29;20429;-93
2024/03/17 10:28:02;;;;;;;8.70;3.90;;;9.90;99.90;;;;;;4905158;29;20512;-94
2024/03/17 10:30:31;;;;;;;8.87;4.50;;;9.90;99.90;;;;;;4904927;29;20449;-92
2024/03/17 10:33:01;;;;;;;12.30;4.30;;;9.90;99.90;;;;;;4903906;29;20468;-92
2024/03/17 10:35:36;;;;;;;12.13;3.77;;;9.90;99.90;;;;;;4902351;29;20468;-96
2024/03/17 10:38:08;;;;;;;7.50;4.17;;;9.90;99.90;;;;;;4902447;29;20521;-93
2024/03/17 10:40:38;;;;;;;10.20;5.37;;;9.90;99.90;;;;;;4918643;29;20484;-93
2024/03/17 10:43:10;;;;;;;8.73;4.10;;;9.90;99.90;;;;;;4898201;29;20450;-92
2024/03/17 10:45:41;;;;;;;9.70;3.90;;;10.00;99.90;;;;;;4898483;29;20449;-93
2024/03/17 10:48:12;;;;;;;8.30;4.07;;;10.00;99.90;;;;;;4900285;29;20483;-93
2024/03/17 10:50:41;;;;;;;9.67;4.20;;;10.10;99.90;;;;;;4899226;29;20473;-93
2024/03/17 10:53:09;;;;;;;8.10;4.60;;;10.10;99.90;;;;;;4901474;29;20457;-95
2024/03/17 10:55:44;;;;;;;8.70;3.63;;;10.20;99.90;;;;;;4913723;29;20449;-93
2024/03/17 10:58:25;;;;;;;7.60;3.23;;;10.20;99.90;;;;;;4896319;29;20520;-93
2024/03/17 11:00:54;;;;;;;7.90;4.50;;;10.20;99.90;;;;;;4897761;29;20469;-93
2024/03/17 11:03:23;;;;;;;7.90;4.00;;;10.20;99.90;;;;;;4895237;29;20482;-93
2024/03/17 11:05:59;;;;;;;10.73;5.67;;;10.20;99.90;;;;;;4911921;29;20456;-92
2024/03/17 11:08:28;;;;;;;10.37;4.40;;;10.20;99.90;;;;;;4894888;29;20909;-93
2024/03/17 11:10:57;;;;;;;8.30;4.40;;;10.20;99.90;;;;;;4910693;29;20473;-92
2024/03/17 11:13:39;;;;;;;8.40;3.90;;;10.20;99.90;;;;;;4894208;29;20464;-92
2024/03/17 11:16:27;;;;;;;9.93;4.13;;;10.20;99.90;;;;;;4913156;29;20456;-93
2024/03/17 11:19:08;;;;;;;6.80;3.70;;;10.20;99.90;;;;;;4897856;29;20462;-93
2024/03/17 11:21:38;;;;;;;9.13;5.13;;;10.20;99.90;;;;;;4897351;29;20465;-93
2024/03/17 11:24:08;;;;;;;9.57;5.10;;;10.30;99.90;;;;;;4901850;29;20453;-93
2024/03/17 11:26:37;;;;;;;11.93;5.83;;;10.40;99.90;;;;;;4899677;29;20465;-93
2024/03/17 11:29:08;;;;;;;10.97;6.60;;;10.40;99.90;;;;;;4894753;29;20446;-93
2024/03/17 11:31:43;;;;;;;9.30;4.43;;;10.50;99.90;;;;;;4892550;29;20525;-93
2024/03/17 11:34:32;;;;;;;7.00;4.37;;;10.50;99.90;;;;;;4899183;29;20513;-93
2024/03/17 11:37:09;;;;;;;9.20;3.93;;;10.60;99.90;;;;;;4884358;29;20516;-93
2024/03/17 11:39:55;;;;;;;10.67;4.20;;;10.70;99.90;;;;;;4892364;29;20576;-92
2024/03/17 11:42:26;;;;;;;8.20;4.90;;;10.80;99.90;;;;;;4891626;29;20532;-93
2024/03/17 11:45:06;;;;;;;8.60;4.47;;;10.80;99.90;;;;;;4891499;29;20507;-92
2024/03/17 11:47:35;;;;;;;6.30;4.37;;;10.80;99.90;;;;;;4909489;29;20872;-92
2024/03/17 11:50:05;;;;;;;6.00;4.40;;;10.90;99.90;;;;;;4894711;29;20467;-92
2024/03/17 11:52:40;;;;;;;8.80;4.50;;;10.90;99.90;;;;;;4892334;29;20454;-92
2024/03/17 11:55:18;;;;;;;6.40;4.50;;;11.00;99.90;;;;;;4908517;29;20434;-92
2024/03/17 11:57:58;;;;;;;9.60;4.10;;;11.00;99.90;;;;;;4889329;29;20450;-93
2024/03/17 12:00:26;;;;;;;9.87;4.00;;;11.00;99.90;;;;;;4872163;29;20466;-93
2024/03/17 12:02:58;;;;;;;8.47;4.60;;;11.00;99.90;;;;;;4888047;29;20474;-93
2024/03/17 12:05:25;;;;;;;8.50;4.77;;;11.10;99.90;;;;;;4886731;29;20454;-93
2024/03/17 12:07:55;;;;;;;9.27;4.93;;;11.10;99.90;;;;;;4888178;29;20461;-93
2024/03/17 12:10:21;;;;;;;9.80;5.30;;;11.10;99.90;;;;;;4902136;29;20477;-92
2024/03/17 12:12:51;;;;;;;8.70;5.60;;;11.20;99.90;;;;;;4874148;29;20450;-93
2024/03/17 12:15:21;;;;;;;9.20;5.10;;;11.20;99.90;;;;;;4887829;29;20442;-93
2024/03/17 12:17:52;;;;;;;9.00;5.60;;;11.30;99.90;;;;;;4871552;29;20450;-93
2024/03/17 12:20:22;;;;;;;7.17;4.40;;;11.30;99.90;;;;;;4873987;29;20484;-92
2024/03/17 12:22:50;;;;;;;5.67;4.10;;;11.30;99.90;;;;;;4907524;29;20458;-92
2024/03/17 12:25:23;;;;;;;6.97;4.90;;;11.40;99.90;;;;;;4889068;29;20457;-93
2024/03/17 12:27:51;;;;;;;7.10;4.60;;;11.50;99.90;;;;;;4858641;29;20458;-93
2024/03/17 12:30:20;;;;;;;7.87;4.30;;;11.60;99.90;;;;;;4888494;29;20478;-93
2024/03/17 12:32:51;;;;;;;8.50;5.00;;;11.60;99.90;;;;;;4903539;29;20465;-94
2024/03/17 12:35:21;;;;;;;8.30;4.63;;;11.70;99.90;;;;;;4905990;29;20829;-93
2024/03/17 12:37:48;;;;;;;9.03;4.60;;;11.70;99.90;;;;;;4892851;29;20454;-93
2024/03/17 12:40:24;;;;;;;10.90;5.23;;;11.70;99.90;;;;;;4893558;29;20477;-93
2024/03/17 12:42:51;;;;;;;10.47;4.93;;;11.70;99.90;;;;;;4896244;29;20457;-93
2024/03/17 12:45:25;;;;;;;7.13;3.73;;;11.80;99.90;;;;;;4881847;29;20509;-93
2024/03/17 12:47:55;;;;;;;7.37;3.90;;;11.80;99.90;;;;;;4914190;29;20458;-93
2024/03/17 12:50:25;;;;;;;7.17;4.00;;;11.80;99.90;;;;;;4892066;29;20501;-92
2024/03/17 12:52:53;;;;;;;8.70;5.00;;;11.80;99.90;;;;;;4876848;29;20541;-93
2024/03/17 13:01:01;;;;;;;6.07;4.43;;;12.10;99.90;;;;;;4908911;29;20549;-92
2024/03/17 13:03:31;;;;;;;8.70;3.80;;;12.10;99.90;;;;;;4893754;29;20517;-93
2024/03/17 13:05:59;;;;;;;6.30;3.73;;;12.30;99.90;;;;;;4877209;29;20544;-93
2024/03/17 13:08:27;;;;;;;5.43;3.87;;;12.30;99.90;;;;;;4890356;29;20450;-93
2024/03/17 13:10:57;;;;;;;8.37;4.00;;;12.40;99.90;;;;;;4874770;29;20470;-92
2024/03/17 13:13:24;;;;;;;7.83;3.70;;;12.50;99.90;;;;;;4878329;29;20536;-92
2024/03/17 13:15:52;;;;;;;7.03;4.10;;;12.50;99.90;;;;;;4890299;29;20458;-92
2024/03/17 13:18:21;;;;;;;7.57;3.70;;;12.60;99.90;;;;;;4890381;29;20478;-92
2024/03/17 13:20:51;;;;;;;6.80;4.67;;;12.60;99.90;;;;;;4907449;29;20478;-92